createdAt,value
2023-03-17T00:02:19.411Z,99481.69
2023-03-17T00:07:46.347Z,99505.81
2023-03-17T00:10:17.288Z,99502.50
2023-03-17T00:12:45.707Z,99485.31
2023-03-17T00:15:14.801Z,99492.78
2023-03-17T00:17:44.039Z,99495.88
2023-03-17T00:20:15.650Z,99497.69
2023-03-17T00:23:01.498Z,99498.06
2023-03-17T00:25:30.620Z,99490.09
2023-03-17T00:31:02.735Z,99490.28
2023-03-17T00:33:34.355Z,99490.78
2023-03-17T00:36:02.155Z,99492.13
2023-03-17T00:38:58.288Z,99480.06
2023-03-17T00:41:26.956Z,99482.38
2023-03-17T00:46:54.230Z,99475.06
2023-03-17T00:49:25.108Z,99480.19
2023-03-17T00:51:53.382Z,99475.22
2023-03-17T00:54:22.443Z,99470.59
2023-03-17T00:56:50.753Z,99473.09
2023-03-17T01:02:14.431Z,99465.34
2023-03-17T01:07:52.783Z,99456.25
2023-03-17T01:10:23.840Z,99449.94
2023-03-17T01:12:51.912Z,99438.88
2023-03-17T01:15:21.527Z,99445.66
2023-03-17T01:17:50.334Z,99440.72
2023-03-17T01:20:20.059Z,99429.63
2023-03-17T01:22:49.242Z,99430.59
2023-03-17T01:25:17.942Z,99441.03
2023-03-17T01:27:46.369Z,99443.03
2023-03-17T01:30:23.574Z,99444.16
2023-03-17T01:32:51.207Z,99453.06
2023-03-17T01:35:19.897Z,99457.22
2023-03-17T01:37:50.393Z,99471.75
2023-03-17T01:40:20.674Z,99477.03
2023-03-17T01:42:52.248Z,99465.97
2023-03-17T01:48:19.214Z,99467.47
2023-03-17T01:50:48.194Z,99457.22
2023-03-17T01:53:17.452Z,99459.22
2023-03-17T01:55:46.978Z,99445.00
2023-03-17T01:58:15.072Z,99445.34
2023-03-17T02:00:43.834Z,99426.69
2023-03-17T02:03:11.432Z,99419.06
2023-03-17T02:05:39.622Z,99423.84
2023-03-17T02:08:11.071Z,99405.50
2023-03-17T02:10:40.712Z,99417.53
2023-03-17T02:16:07.809Z,99416.53
2023-03-17T02:18:35.250Z,99428.09
2023-03-17T02:21:32.443Z,99423.47
2023-03-17T02:24:02.058Z,99425.09
2023-03-17T02:29:18.491Z,99421.94
2023-03-17T02:31:46.278Z,99435.88
2023-03-17T02:34:13.712Z,99443.78
2023-03-17T02:36:42.821Z,99445.13
2023-03-17T02:39:11.051Z,99455.03
2023-03-17T02:41:38.841Z,99453.56
2023-03-17T02:44:06.455Z,99466.97
2023-03-17T02:46:33.916Z,99474.19
2023-03-17T02:49:01.881Z,99479.53
2023-03-17T02:54:13.314Z,99472.94
2023-03-17T02:59:43.647Z,99462.19
2023-03-17T03:02:11.389Z,99456.06
2023-03-17T03:04:38.915Z,99444.50
2023-03-17T03:07:06.435Z,99443.69
2023-03-17T03:09:35.187Z,99436.91
2023-03-17T03:12:02.954Z,99426.97
2023-03-17T03:14:30.410Z,99417.25
2023-03-17T03:16:58.406Z,99410.31
2023-03-17T03:19:25.847Z,99402.19
2023-03-17T03:21:53.276Z,99400.72
2023-03-17T03:24:20.671Z,99395.75
2023-03-17T03:26:49.415Z,99399.06
2023-03-17T03:29:16.857Z,99394.78
2023-03-17T03:31:44.281Z,99390.47
2023-03-17T03:34:11.907Z,99385.22
2023-03-17T03:36:39.362Z,99374.63
2023-03-17T03:41:58.110Z,99377.63
2023-03-17T03:44:25.870Z,99371.47
2023-03-17T03:46:53.385Z,99379.22
2023-03-17T03:49:20.984Z,99387.31
2023-03-17T03:51:48.452Z,99395.94
2023-03-17T03:54:15.897Z,99389.13
2023-03-17T03:56:43.366Z,99393.94
2023-03-17T03:59:12.538Z,99395.56
2023-03-17T04:01:40.034Z,99391.47
2023-03-17T04:04:07.483Z,99379.19
2023-03-17T04:06:35.130Z,99381.19
2023-03-17T04:09:02.714Z,99383.44
2023-03-17T04:11:30.178Z,99366.34
2023-03-17T04:13:58.019Z,99370.31
2023-03-17T04:16:27.070Z,99371.91
2023-03-17T04:18:54.527Z,99369.41
2023-03-17T04:24:25.079Z,99372.88
2023-03-17T04:26:53.080Z,99375.47
2023-03-17T04:29:20.523Z,99372.66
2023-03-17T04:31:49.583Z,99367.41
2023-03-17T04:34:18.608Z,99367.75
2023-03-17T04:39:48.909Z,99367.50
2023-03-17T04:42:16.423Z,99367.16
2023-03-17T04:44:43.975Z,99372.22
2023-03-17T04:47:13.095Z,99374.13
2023-03-17T04:49:40.823Z,99372.91
2023-03-17T04:52:08.512Z,99374.78
2023-03-17T04:54:36.374Z,99356.97
2023-03-17T04:57:03.867Z,99356.66
2023-03-17T04:59:31.547Z,99366.22
2023-03-17T05:01:59.064Z,99378.06
2023-03-17T05:04:31.652Z,99378.03
2023-03-17T05:06:59.679Z,99385.97
2023-03-17T05:09:28.533Z,99387.78
2023-03-17T05:11:56.382Z,99380.63
2023-03-17T05:17:22.000Z,99370.66
2023-03-17T05:19:50.901Z,99371.25
2023-03-17T05:22:18.497Z,99368.91
2023-03-17T05:24:46.079Z,99373.81
2023-03-17T05:27:13.535Z,99371.19
2023-03-17T05:32:44.090Z,99377.41
2023-03-17T05:35:14.097Z,99372.38
2023-03-17T05:37:41.620Z,99374.47
2023-03-17T05:40:10.417Z,99371.44
2023-03-17T05:45:37.143Z,99365.06
2023-03-17T05:48:05.176Z,99367.09
2023-03-17T05:50:34.338Z,99363.81
2023-03-17T05:53:01.936Z,99359.00
2023-03-17T05:55:29.339Z,99360.25
2023-03-17T06:00:45.151Z,99346.25
2023-03-17T06:03:12.687Z,99346.31
2023-03-17T06:05:41.798Z,99353.03
2023-03-17T06:08:10.190Z,99351.47
2023-03-17T06:13:35.890Z,99362.50
2023-03-17T06:16:03.868Z,99353.50
2023-03-17T06:18:31.492Z,99348.28
2023-03-17T06:21:00.293Z,99342.38
2023-03-17T06:23:27.713Z,99338.78
2023-03-17T06:25:55.405Z,99330.03
2023-03-17T06:28:23.008Z,99333.84
2023-03-17T06:30:51.169Z,99333.19
2023-03-17T06:33:19.086Z,99339.28
2023-03-17T06:35:46.909Z,99331.69
2023-03-17T06:38:15.723Z,99340.28
2023-03-17T06:40:43.389Z,99331.53
2023-03-17T06:45:59.105Z,99318.94
2023-03-17T06:48:26.835Z,99322.47
2023-03-17T06:50:54.256Z,99310.47
2023-03-17T06:53:23.115Z,99308.78
2023-03-17T06:55:50.547Z,99311.06
2023-03-17T06:58:18.070Z,99320.59
2023-03-17T07:00:47.053Z,99325.38
2023-03-17T07:03:14.655Z,99331.41
2023-03-17T07:08:46.895Z,99328.34
2023-03-17T07:11:14.614Z,99326.34
2023-03-17T07:13:42.205Z,99325.63
2023-03-17T07:16:11.173Z,99322.44
2023-03-17T07:18:39.320Z,99314.66
2023-03-17T07:21:06.958Z,99321.63
2023-03-17T07:23:34.414Z,99320.59
2023-03-17T07:26:03.525Z,99331.41
2023-03-17T07:28:31.217Z,99326.81
2023-03-17T07:31:00.369Z,99315.19
2023-03-17T07:33:27.828Z,99320.56
2023-03-17T07:38:57.876Z,99319.41
2023-03-17T07:41:26.660Z,99323.13
2023-03-17T07:43:54.149Z,99321.56
2023-03-17T07:46:21.804Z,99320.13
2023-03-17T07:48:49.288Z,99325.03
2023-03-17T07:51:18.966Z,99321.84
2023-03-17T07:53:46.815Z,99321.16
2023-03-17T07:56:14.321Z,99314.38
2023-03-17T07:58:43.115Z,99318.91
2023-03-17T08:01:10.695Z,99320.84
2023-03-17T08:03:41.365Z,99312.19
2023-03-17T08:06:09.231Z,99319.91
2023-03-17T08:08:36.881Z,99315.66
2023-03-17T08:11:05.640Z,99324.38
2023-03-17T08:16:33.627Z,99323.38
2023-03-17T08:19:03.785Z,99324.44
2023-03-17T08:21:31.816Z,99319.00
2023-03-17T08:23:59.258Z,99320.34
2023-03-17T08:29:20.566Z,99325.16
2023-03-17T08:31:49.481Z,99320.16
2023-03-17T08:34:17.040Z,99320.41
2023-03-17T08:36:44.537Z,99324.75
2023-03-17T08:42:01.133Z,99313.78
2023-03-17T08:44:28.656Z,99314.19
2023-03-17T08:46:57.819Z,99308.38
2023-03-17T08:49:28.939Z,99304.28
2023-03-17T08:51:56.374Z,99313.13
2023-03-17T08:57:25.937Z,99297.94
2023-03-17T08:59:53.581Z,99299.59
2023-03-17T09:05:25.324Z,99293.97
2023-03-17T09:07:53.442Z,99294.97
2023-03-17T09:10:23.483Z,99298.16
2023-03-17T09:12:51.462Z,99293.81
2023-03-17T09:15:18.947Z,99298.59
2023-03-17T09:20:50.419Z,99306.78
2023-03-17T09:23:17.853Z,99298.13
2023-03-17T09:25:45.376Z,99319.38
2023-03-17T09:28:13.585Z,99309.09
2023-03-17T09:30:42.483Z,99313.81
2023-03-17T09:33:10.237Z,99316.78
2023-03-17T09:35:37.688Z,99325.94
2023-03-17T09:38:06.832Z,99325.59
2023-03-17T09:43:29.055Z,99333.63
2023-03-17T09:45:57.667Z,99322.31
2023-03-17T09:48:33.519Z,99331.44
2023-03-17T09:51:04.721Z,99323.44
2023-03-17T09:53:36.125Z,99323.53
2023-03-17T09:56:08.113Z,99313.88
2023-03-17T09:58:36.556Z,99319.25
2023-03-17T10:01:05.931Z,99320.41
2023-03-17T10:03:34.069Z,99321.34
2023-03-17T10:06:19.302Z,99308.31
2023-03-17T10:08:54.939Z,99317.00
2023-03-17T10:11:29.420Z,99309.75
2023-03-17T10:14:01.957Z,99301.09
2023-03-17T10:19:33.911Z,99288.59
2023-03-17T10:22:04.253Z,99289.16
2023-03-17T10:24:33.890Z,99291.53
2023-03-17T10:27:04.590Z,99290.59
2023-03-17T10:29:32.576Z,99277.00
2023-03-17T10:32:00.295Z,99282.16
2023-03-17T10:34:29.718Z,99286.78
2023-03-17T10:39:59.672Z,99292.44
2023-03-17T10:42:29.035Z,99284.00
2023-03-17T10:44:57.748Z,99285.97
2023-03-17T10:47:30.013Z,99275.81
2023-03-17T10:52:47.507Z,99275.47
2023-03-17T10:55:21.237Z,99270.19
2023-03-17T10:57:53.440Z,99278.25
2023-03-17T11:03:23.266Z,99268.06
2023-03-17T11:05:56.619Z,99272.47
2023-03-17T11:08:24.270Z,99275.25
2023-03-17T11:10:57.495Z,99274.88
2023-03-17T11:13:30.005Z,99273.81
2023-03-17T11:16:11.508Z,99266.00
2023-03-17T11:18:40.650Z,99261.75
2023-03-17T11:21:10.410Z,99273.94
2023-03-17T11:23:46.239Z,99272.72
2023-03-17T11:26:27.471Z,99272.53
2023-03-17T11:29:01.625Z,99275.03
2023-03-17T11:31:32.338Z,99271.56
2023-03-17T11:36:57.814Z,99261.66
2023-03-17T11:39:27.693Z,99248.03
2023-03-17T11:42:05.847Z,99257.69
2023-03-17T11:44:41.157Z,99258.75
2023-03-17T11:47:18.089Z,99258.72
2023-03-17T11:49:50.779Z,99254.84
2023-03-17T11:52:24.472Z,99255.31
2023-03-17T11:57:56.960Z,99249.66
2023-03-17T12:03:32.939Z,99252.94
2023-03-17T12:06:05.326Z,99248.66
2023-03-17T12:08:37.815Z,99243.00
2023-03-17T12:11:08.315Z,99248.47
2023-03-17T12:16:31.010Z,99236.63
2023-03-17T12:19:04.541Z,99238.13
2023-03-17T12:21:36.815Z,99245.28
2023-03-17T12:24:11.481Z,99241.75
2023-03-17T12:26:45.394Z,99236.75
2023-03-17T12:32:06.563Z,99233.16
2023-03-17T12:34:37.709Z,99233.66
2023-03-17T12:37:05.473Z,99228.19
2023-03-17T12:39:34.250Z,99229.84
2023-03-17T12:45:30.632Z,99234.25
2023-03-17T12:51:14.496Z,99232.25
2023-03-17T12:53:42.588Z,99221.38
2023-03-17T12:56:18.153Z,99228.00
2023-03-17T12:58:46.553Z,99211.69
2023-03-17T13:01:23.981Z,99216.66
2023-03-17T13:04:04.362Z,99209.53
2023-03-17T13:09:43.747Z,99204.69
2023-03-17T13:12:36.660Z,99202.56
2023-03-17T13:15:04.525Z,99200.06
2023-03-17T13:17:34.721Z,99197.78
2023-03-17T13:20:15.227Z,99190.22
2023-03-17T13:23:01.869Z,99187.03
2023-03-17T13:25:34.829Z,99189.00
2023-03-17T13:28:23.660Z,99191.31
2023-03-17T13:30:57.356Z,99194.44
2023-03-17T13:33:30.577Z,99190.88
2023-03-17T13:36:06.573Z,99189.81
2023-03-17T13:38:48.520Z,99192.56
2023-03-17T13:41:34.247Z,99179.06
2023-03-17T13:47:12.456Z,99174.75
2023-03-17T13:49:39.986Z,99174.63
2023-03-17T13:52:12.527Z,99165.53
2023-03-17T13:54:42.678Z,99163.16
2023-03-17T13:57:26.512Z,99165.94
2023-03-17T14:03:03.078Z,99162.34
2023-03-17T14:05:32.921Z,99163.56
2023-03-17T14:08:02.943Z,99168.50
2023-03-17T14:10:33.399Z,99164.22
2023-03-17T14:13:09.023Z,99157.47
2023-03-17T14:15:46.069Z,99161.44
2023-03-17T14:18:17.970Z,99144.50
2023-03-17T14:20:53.555Z,99150.53
2023-03-17T14:26:25.376Z,99159.13
2023-03-17T14:28:54.491Z,99158.91
2023-03-17T14:31:24.103Z,99155.06
2023-03-17T14:33:54.112Z,99157.66
2023-03-17T14:36:21.885Z,99148.94
2023-03-17T14:38:51.388Z,99150.81
2023-03-17T14:41:20.773Z,99145.50
2023-03-17T14:43:48.474Z,99150.06
2023-03-17T14:46:19.162Z,99157.13
2023-03-17T14:51:41.963Z,99148.88
2023-03-17T14:54:13.904Z,99155.97
2023-03-17T14:59:45.084Z,99174.50
2023-03-17T15:02:23.119Z,99160.09
2023-03-17T15:04:53.210Z,99160.84
2023-03-17T15:07:32.219Z,99169.09
2023-03-17T15:13:01.918Z,99171.25
2023-03-17T15:15:31.984Z,99165.97
2023-03-17T15:20:51.912Z,99152.31
2023-03-17T15:26:25.509Z,99147.97
2023-03-17T15:28:53.007Z,99152.88
2023-03-17T15:31:23.350Z,99145.84
2023-03-17T15:33:51.291Z,99150.84
2023-03-17T15:36:31.816Z,99155.88
2023-03-17T15:39:00.432Z,99157.19
2023-03-17T15:41:27.911Z,99148.41
2023-03-17T15:46:57.912Z,99134.88
2023-03-17T15:49:26.983Z,99141.41
2023-03-17T15:51:55.927Z,99137.97
2023-03-17T15:54:23.374Z,99141.38
2023-03-17T15:56:50.824Z,99147.72
2023-03-17T15:59:18.255Z,99142.94
2023-03-17T16:01:45.783Z,99143.28
2023-03-17T16:04:13.544Z,99132.22
2023-03-17T16:06:41.077Z,99126.03
2023-03-17T16:09:16.590Z,99123.78
2023-03-17T16:11:44.232Z,99132.59
2023-03-17T16:14:12.079Z,99125.91
2023-03-17T16:16:42.400Z,99119.72
2023-03-17T16:19:17.509Z,99132.56
2023-03-17T16:21:45.004Z,99140.66
2023-03-17T16:24:18.208Z,99143.88
2023-03-17T16:26:45.615Z,99142.72
2023-03-17T16:29:14.237Z,99144.44
2023-03-17T16:34:40.005Z,99149.25
2023-03-17T16:37:09.796Z,99158.38
2023-03-17T16:39:39.607Z,99159.53
2023-03-17T16:42:32.874Z,99166.38
2023-03-17T16:45:00.330Z,99160.03
2023-03-17T16:50:31.789Z,99168.25
2023-03-17T16:52:59.905Z,99185.84
2023-03-17T16:55:29.998Z,99179.91
2023-03-17T16:58:00.546Z,99179.38
2023-03-17T17:00:30.093Z,99170.88
2023-03-17T17:02:59.377Z,99171.31
2023-03-17T17:05:29.162Z,99158.31
2023-03-17T17:07:57.655Z,99162.03
2023-03-17T17:10:27.300Z,99185.25
2023-03-17T17:12:56.068Z,99205.63
2023-03-17T17:15:23.706Z,99211.00
2023-03-17T17:17:53.348Z,99207.72
2023-03-17T17:20:22.176Z,99207.91
2023-03-17T17:22:50.184Z,99193.34
2023-03-17T17:25:18.111Z,99193.97
2023-03-17T17:30:35.422Z,99195.91
2023-03-17T17:33:03.303Z,99198.00
2023-03-17T17:35:32.909Z,99191.53
2023-03-17T17:38:01.335Z,99196.38
2023-03-17T17:40:29.606Z,99191.66
2023-03-17T17:42:57.656Z,99185.31
2023-03-17T17:48:29.319Z,99221.47
2023-03-17T17:50:57.829Z,99217.59
2023-03-17T17:53:25.466Z,99221.88
2023-03-17T17:55:52.971Z,99215.28
2023-03-17T17:58:24.008Z,99200.56
2023-03-17T18:00:52.528Z,99190.94
2023-03-17T18:03:24.301Z,99183.09
2023-03-17T18:08:55.021Z,99190.50
2023-03-17T18:11:22.466Z,99179.97
2023-03-17T18:13:49.857Z,99195.19
2023-03-17T18:16:18.160Z,99205.44
2023-03-17T18:18:46.997Z,99208.09
2023-03-17T18:24:04.716Z,99191.00
2023-03-17T18:26:32.825Z,99185.69
2023-03-17T18:29:01.098Z,99175.03
2023-03-17T18:34:35.048Z,99178.91
2023-03-17T18:37:02.826Z,99183.41
2023-03-17T18:39:33.482Z,99201.16
2023-03-17T18:42:00.906Z,99216.47
2023-03-17T18:47:27.013Z,99203.19
2023-03-17T18:49:55.577Z,99186.72
2023-03-17T18:55:06.601Z,99171.84
2023-03-17T19:00:36.978Z,99189.31
2023-03-17T19:03:04.548Z,99180.91
2023-03-17T19:05:31.997Z,99184.66
2023-03-17T19:10:54.305Z,99205.41
2023-03-17T19:13:21.722Z,99211.34
2023-03-17T19:15:49.718Z,99201.94
2023-03-17T19:21:13.149Z,99210.78
2023-03-17T19:23:41.314Z,99214.88
2023-03-17T19:26:10.200Z,99203.78
2023-03-17T19:28:37.691Z,99194.97
2023-03-17T19:31:30.265Z,99214.69
2023-03-17T19:33:57.775Z,99222.25
2023-03-17T19:36:25.400Z,99206.88
2023-03-17T19:38:52.825Z,99203.59
2023-03-17T19:41:21.568Z,99202.16
2023-03-17T19:43:49.006Z,99201.53
2023-03-17T19:46:16.480Z,99205.84
2023-03-17T19:48:43.906Z,99205.41
2023-03-17T19:54:00.060Z,99192.28
2023-03-17T19:56:28.834Z,99189.44
2023-03-17T19:58:56.404Z,99186.16
2023-03-17T20:01:23.913Z,99196.84
2023-03-17T20:06:52.074Z,99191.88
2023-03-17T20:09:19.542Z,99204.41
2023-03-17T20:11:48.287Z,99215.44
2023-03-17T20:14:15.844Z,99201.72
2023-03-17T20:16:43.351Z,99188.16
2023-03-17T20:19:10.772Z,99193.50
2023-03-17T20:21:38.235Z,99190.41
2023-03-17T20:24:07.073Z,99184.66
2023-03-17T20:26:34.637Z,99195.16
2023-03-17T20:29:03.479Z,99196.97
2023-03-17T20:31:31.952Z,99203.75
2023-03-17T20:33:59.521Z,99200.44
2023-03-17T20:36:27.311Z,99212.13
2023-03-17T20:38:54.724Z,99210.31
2023-03-17T20:41:22.395Z,99213.41
2023-03-17T20:43:49.823Z,99216.28
2023-03-17T20:46:20.521Z,99203.16
2023-03-17T20:48:48.385Z,99199.06
2023-03-17T20:51:17.138Z,99192.72
2023-03-17T20:53:45.095Z,99191.69
2023-03-17T20:56:15.223Z,99198.41
2023-03-17T20:58:42.939Z,99186.72
2023-03-17T21:01:12.686Z,99196.59
2023-03-17T21:03:42.217Z,99204.41
2023-03-17T21:06:10.454Z,99191.84
2023-03-17T21:08:38.613Z,99189.22
2023-03-17T21:11:06.828Z,99199.84
2023-03-17T21:13:34.439Z,99194.72
2023-03-17T21:16:02.331Z,99185.84
2023-03-17T21:18:30.307Z,99187.25
2023-03-17T21:20:59.476Z,99197.78
2023-03-17T21:23:27.013Z,99187.31
2023-03-17T21:28:57.431Z,99200.25
2023-03-17T21:31:25.038Z,99209.28
2023-03-17T21:33:52.702Z,99193.47
2023-03-17T21:36:21.875Z,99194.28
2023-03-17T21:38:49.364Z,99201.66
2023-03-17T21:44:27.592Z,99204.41
2023-03-17T21:46:56.312Z,99209.31
2023-03-17T21:49:24.916Z,99193.09
2023-03-17T21:51:54.613Z,99204.81
2023-03-17T21:54:22.258Z,99198.66
2023-03-17T21:59:52.040Z,99206.00
2023-03-17T22:02:19.539Z,99204.16
2023-03-17T22:04:48.581Z,99205.22
2023-03-17T22:07:17.726Z,99208.09
2023-03-17T22:12:37.020Z,99212.41
2023-03-17T22:18:06.947Z,99218.56
2023-03-17T22:20:34.447Z,99215.50
2023-03-17T22:23:03.254Z,99221.44
2023-03-17T22:28:19.363Z,99222.44
2023-03-17T22:33:44.324Z,99251.56
2023-03-17T22:36:11.957Z,99246.19
2023-03-17T22:38:41.246Z,99257.53
2023-03-17T22:41:10.730Z,99245.94
2023-03-17T22:43:38.426Z,99248.78
2023-03-17T22:46:06.101Z,99254.16
2023-03-17T22:48:35.979Z,99249.88
2023-03-17T22:54:03.696Z,99261.66
2023-03-17T22:56:31.355Z,99261.94
2023-03-17T22:58:59.099Z,99260.69
2023-03-17T23:01:27.180Z,99266.25
2023-03-17T23:03:55.355Z,99264.22
2023-03-17T23:06:23.186Z,99265.31
2023-03-17T23:08:50.798Z,99270.50
2023-03-17T23:14:23.648Z,99264.47
2023-03-17T23:16:51.236Z,99271.91
2023-03-17T23:22:16.948Z,99270.44
2023-03-17T23:24:44.367Z,99271.25
2023-03-17T23:27:12.188Z,99278.38
2023-03-17T23:29:41.104Z,99285.31
2023-03-17T23:35:03.710Z,99282.22
2023-03-17T23:37:31.516Z,99285.19
2023-03-17T23:39:59.159Z,99281.72
2023-03-17T23:42:26.633Z,99294.88
2023-03-17T23:44:55.567Z,99292.00
2023-03-17T23:47:23.235Z,99296.00
2023-03-17T23:49:50.650Z,99286.59
2023-03-17T23:52:18.131Z,99300.59
2023-03-17T23:57:34.630Z,99290.09
